sensor_id;sensor_type;location;lat;lon;timestamp;P1;durP1;ratioP1;P2;durP2;ratioP2
15876;SDS011;8037;51.666;7.834;2023-05-15T00:02:24;3.83;;;3.53;;
15876;SDS011;8037;51.666;7.834;2023-05-15T00:04:51;2.93;;;2.73;;
15876;SDS011;8037;51.666;7.834;2023-05-15T00:07:17;3.00;;;2.70;;
15876;SDS011;8037;51.666;7.834;2023-05-15T00:09:43;4.17;;;3.80;;
15876;SDS011;8037;51.666;7.834;2023-05-15T00:12:09;3.50;;;3.03;;
15876;SDS011;8037;51.666;7.834;2023-05-15T00:14:35;3.87;;;3.57;;
15876;SDS011;8037;51.666;7.834;2023-05-15T00:17:01;4.63;;;3.23;;
15876;SDS011;8037;51.666;7.834;2023-05-15T00:19:27;3.13;;;2.93;;
15876;SDS011;8037;51.666;7.834;2023-05-15T00:21:53;3.17;;;2.97;;
15876;SDS011;8037;51.666;7.834;2023-05-15T00:24:20;3.40;;;3.20;;
15876;SDS011;8037;51.666;7.834;2023-05-15T00:26:46;3.90;;;3.60;;
15876;SDS011;8037;51.666;7.834;2023-05-15T00:29:12;3.17;;;2.90;;
15876;SDS011;8037;51.666;7.834;2023-05-15T00:31:38;3.97;;;3.43;;
15876;SDS011;8037;51.666;7.834;2023-05-15T00:34:04;3.70;;;3.40;;
15876;SDS011;8037;51.666;7.834;2023-05-15T00:36:30;6.33;;;3.77;;
15876;SDS011;8037;51.666;7.834;2023-05-15T00:38:55;3.67;;;3.37;;
15876;SDS011;8037;51.666;7.834;2023-05-15T00:41:22;6.90;;;3.20;;
15876;SDS011;8037;51.666;7.834;2023-05-15T00:43:49;3.10;;;2.70;;
15876;SDS011;8037;51.666;7.834;2023-05-15T00:46:16;5.10;;;3.33;;
15876;SDS011;8037;51.666;7.834;2023-05-15T00:48:42;6.60;;;3.80;;
15876;SDS011;8037;51.666;7.834;2023-05-15T00:51:08;2.97;;;2.87;;
15876;SDS011;8037;51.666;7.834;2023-05-15T00:53:34;3.43;;;3.10;;
15876;SDS011;8037;51.666;7.834;2023-05-15T00:56:02;3.33;;;3.13;;
15876;SDS011;8037;51.666;7.834;2023-05-15T00:58:29;5.50;;;3.90;;
15876;SDS011;8037;51.666;7.834;2023-05-15T01:00:55;3.80;;;3.00;;
15876;SDS011;8037;51.666;7.834;2023-05-15T01:03:22;5.97;;;3.27;;
15876;SDS011;8037;51.666;7.834;2023-05-15T01:05:48;3.53;;;3.23;;
15876;SDS011;8037;51.666;7.834;2023-05-15T01:10:43;4.70;;;3.50;;
15876;SDS011;8037;51.666;7.834;2023-05-15T01:13:11;3.73;;;3.40;;
15876;SDS011;8037;51.666;7.834;2023-05-15T01:15:38;6.93;;;2.63;;
15876;SDS011;8037;51.666;7.834;2023-05-15T01:18:05;6.97;;;3.40;;
15876;SDS011;8037;51.666;7.834;2023-05-15T01:20:33;3.57;;;3.27;;
15876;SDS011;8037;51.666;7.834;2023-05-15T01:23:37;7.60;;;3.53;;
15876;SDS011;8037;51.666;7.834;2023-05-15T01:26:14;4.47;;;3.70;;
15876;SDS011;8037;51.666;7.834;2023-05-15T01:28:56;3.67;;;3.33;;
15876;SDS011;8037;51.666;7.834;2023-05-15T01:31:23;3.73;;;3.43;;
15876;SDS011;8037;51.666;7.834;2023-05-15T01:33:53;4.30;;;3.30;;
15876;SDS011;8037;51.666;7.834;2023-05-15T01:36:21;4.40;;;4.00;;
15876;SDS011;8037;51.666;7.834;2023-05-15T01:38:57;5.47;;;4.47;;
15876;SDS011;8037;51.666;7.834;2023-05-15T01:41:27;3.20;;;2.90;;
15876;SDS011;8037;51.666;7.834;2023-05-15T01:43:58;4.17;;;3.40;;
15876;SDS011;8037;51.666;7.834;2023-05-15T01:46:25;10.63;;;4.53;;
15876;SDS011;8037;51.666;7.834;2023-05-15T01:48:53;5.80;;;3.50;;
15876;SDS011;8037;51.666;7.834;2023-05-15T01:51:20;5.10;;;4.43;;
15876;SDS011;8037;51.666;7.834;2023-05-15T01:53:47;6.40;;;4.23;;
15876;SDS011;8037;51.666;7.834;2023-05-15T01:56:14;5.50;;;3.90;;
15876;SDS011;8037;51.666;7.834;2023-05-15T01:58:40;4.93;;;4.13;;
15876;SDS011;8037;51.666;7.834;2023-05-15T02:01:07;4.07;;;3.70;;
15876;SDS011;8037;51.666;7.834;2023-05-15T02:03:33;4.07;;;3.77;;
15876;SDS011;8037;51.666;7.834;2023-05-15T02:06:01;8.37;;;4.70;;
15876;SDS011;8037;51.666;7.834;2023-05-15T02:08:27;4.97;;;3.50;;
15876;SDS011;8037;51.666;7.834;2023-05-15T02:10:56;4.63;;;4.20;;
15876;SDS011;8037;51.666;7.834;2023-05-15T02:13:23;4.47;;;4.07;;
15876;SDS011;8037;51.666;7.834;2023-05-15T02:15:49;4.83;;;4.37;;
15876;SDS011;8037;51.666;7.834;2023-05-15T02:18:16;11.10;;;3.77;;
15876;SDS011;8037;51.666;7.834;2023-05-15T02:20:42;4.67;;;4.27;;
15876;SDS011;8037;51.666;7.834;2023-05-15T02:23:08;4.27;;;3.97;;
15876;SDS011;8037;51.666;7.834;2023-05-15T02:25:39;4.53;;;4.13;;
15876;SDS011;8037;51.666;7.834;2023-05-15T02:28:09;8.43;;;4.20;;
15876;SDS011;8037;51.666;7.834;2023-05-15T02:35:56;5.20;;;4.37;;
15876;SDS011;8037;51.666;7.834;2023-05-15T02:38:34;4.90;;;4.03;;
15876;SDS011;8037;51.666;7.834;2023-05-15T02:41:02;4.50;;;4.00;;
15876;SDS011;8037;51.666;7.834;2023-05-15T02:43:29;4.13;;;3.70;;
15876;SDS011;8037;51.666;7.834;2023-05-15T02:45:56;4.27;;;3.97;;
15876;SDS011;8037;51.666;7.834;2023-05-15T02:48:23;4.43;;;3.97;;
15876;SDS011;8037;51.666;7.834;2023-05-15T02:50:50;4.17;;;3.77;;
15876;SDS011;8037;51.666;7.834;2023-05-15T02:53:16;5.93;;;4.57;;
15876;SDS011;8037;51.666;7.834;2023-05-15T02:55:42;5.93;;;4.57;;
15876;SDS011;8037;51.666;7.834;2023-05-15T02:58:08;4.33;;;3.93;;
15876;SDS011;8037;51.666;7.834;2023-05-15T03:00:34;4.30;;;4.00;;
15876;SDS011;8037;51.666;7.834;2023-05-15T03:03:00;4.27;;;3.97;;
15876;SDS011;8037;51.666;7.834;2023-05-15T03:05:26;5.13;;;4.13;;
15876;SDS011;8037;51.666;7.834;2023-05-15T03:07:52;4.67;;;3.90;;
15876;SDS011;8037;51.666;7.834;2023-05-15T03:10:18;6.23;;;4.27;;
15876;SDS011;8037;51.666;7.834;2023-05-15T03:12:47;8.30;;;4.03;;
15876;SDS011;8037;51.666;7.834;2023-05-15T03:15:13;5.63;;;3.77;;
15876;SDS011;8037;51.666;7.834;2023-05-15T03:17:39;5.47;;;4.80;;
15876;SDS011;8037;51.666;7.834;2023-05-15T03:20:06;7.77;;;4.37;;
15876;SDS011;8037;51.666;7.834;2023-05-15T03:22:32;3.90;;;3.70;;
15876;SDS011;8037;51.666;7.834;2023-05-15T03:24:58;6.47;;;4.40;;
15876;SDS011;8037;51.666;7.834;2023-05-15T03:27:26;4.77;;;3.80;;
15876;SDS011;8037;51.666;7.834;2023-05-15T03:29:52;5.73;;;4.67;;
15876;SDS011;8037;51.666;7.834;2023-05-15T03:32:18;5.07;;;4.57;;
15876;SDS011;8037;51.666;7.834;2023-05-15T03:34:43;6.17;;;4.77;;
15876;SDS011;8037;51.666;7.834;2023-05-15T03:37:09;5.37;;;4.30;;
15876;SDS011;8037;51.666;7.834;2023-05-15T03:39:35;5.47;;;4.43;;
15876;SDS011;8037;51.666;7.834;2023-05-15T03:42:01;4.83;;;4.30;;
15876;SDS011;8037;51.666;7.834;2023-05-15T03:44:27;4.77;;;4.27;;
15876;SDS011;8037;51.666;7.834;2023-05-15T03:46:53;4.17;;;3.93;;
15876;SDS011;8037;51.666;7.834;2023-05-15T03:49:19;6.77;;;5.00;;
15876;SDS011;8037;51.666;7.834;2023-05-15T03:51:45;4.70;;;4.30;;
15876;SDS011;8037;51.666;7.834;2023-05-15T03:54:11;4.80;;;4.30;;
15876;SDS011;8037;51.666;7.834;2023-05-15T03:56:37;7.60;;;3.90;;
15876;SDS011;8037;51.666;7.834;2023-05-15T03:59:03;23.03;;;5.80;;
15876;SDS011;8037;51.666;7.834;2023-05-15T04:01:29;4.60;;;3.90;;
15876;SDS011;8037;51.666;7.834;2023-05-15T04:03:55;3.93;;;3.60;;
15876;SDS011;8037;51.666;7.834;2023-05-15T04:06:21;4.70;;;4.30;;
15876;SDS011;8037;51.666;7.834;2023-05-15T04:08:47;4.17;;;3.87;;
15876;SDS011;8037;51.666;7.834;2023-05-15T04:11:13;3.90;;;3.60;;
15876;SDS011;8037;51.666;7.834;2023-05-15T04:13:40;4.00;;;3.70;;
15876;SDS011;8037;51.666;7.834;2023-05-15T04:16:06;4.07;;;3.83;;
15876;SDS011;8037;51.666;7.834;2023-05-15T04:18:32;4.83;;;4.43;;
15876;SDS011;8037;51.666;7.834;2023-05-15T04:20:58;5.97;;;4.60;;
15876;SDS011;8037;51.666;7.834;2023-05-15T04:23:24;3.73;;;3.43;;
15876;SDS011;8037;51.666;7.834;2023-05-15T04:25:50;9.53;;;3.90;;
15876;SDS011;8037;51.666;7.834;2023-05-15T04:28:17;4.90;;;4.57;;
15876;SDS011;8037;51.666;7.834;2023-05-15T04:30:45;4.73;;;4.43;;
15876;SDS011;8037;51.666;7.834;2023-05-15T04:33:11;6.03;;;5.53;;
15876;SDS011;8037;51.666;7.834;2023-05-15T04:35:38;4.97;;;4.40;;
15876;SDS011;8037;51.666;7.834;2023-05-15T04:38:04;5.47;;;5.07;;
15876;SDS011;8037;51.666;7.834;2023-05-15T04:40:30;7.00;;;5.80;;
15876;SDS011;8037;51.666;7.834;2023-05-15T04:42:56;5.23;;;4.87;;
15876;SDS011;8037;51.666;7.834;2023-05-15T04:45:22;5.17;;;4.60;;
15876;SDS011;8037;51.666;7.834;2023-05-15T04:47:51;7.20;;;4.83;;
15876;SDS011;8037;51.666;7.834;2023-05-15T04:50:17;4.67;;;4.30;;
15876;SDS011;8037;51.666;7.834;2023-05-15T04:52:43;5.30;;;4.80;;
15876;SDS011;8037;51.666;7.834;2023-05-15T04:55:09;4.17;;;3.87;;
15876;SDS011;8037;51.666;7.834;2023-05-15T04:57:35;10.77;;;5.17;;
15876;SDS011;8037;51.666;7.834;2023-05-15T05:00:01;5.77;;;5.07;;
15876;SDS011;8037;51.666;7.834;2023-05-15T05:02:29;4.93;;;4.60;;
15876;SDS011;8037;51.666;7.834;2023-05-15T05:04:55;8.80;;;4.50;;
15876;SDS011;8037;51.666;7.834;2023-05-15T05:07:21;5.67;;;3.97;;
15876;SDS011;8037;51.666;7.834;2023-05-15T05:09:47;4.63;;;4.30;;
15876;SDS011;8037;51.666;7.834;2023-05-15T05:12:13;5.23;;;4.83;;
15876;SDS011;8037;51.666;7.834;2023-05-15T05:14:38;5.90;;;4.90;;
15876;SDS011;8037;51.666;7.834;2023-05-15T05:17:05;4.60;;;4.27;;
15876;SDS011;8037;51.666;7.834;2023-05-15T05:19:31;4.93;;;4.60;;
15876;SDS011;8037;51.666;7.834;2023-05-15T05:21:57;5.70;;;5.20;;
15876;SDS011;8037;51.666;7.834;2023-05-15T05:24:25;6.63;;;5.10;;
15876;SDS011;8037;51.666;7.834;2023-05-15T05:26:51;8.43;;;5.03;;
15876;SDS011;8037;51.666;7.834;2023-05-15T05:29:17;7.87;;;5.43;;
15876;SDS011;8037;51.666;7.834;2023-05-15T05:31:44;5.37;;;5.00;;
15876;SDS011;8037;51.666;7.834;2023-05-15T05:34:11;8.40;;;5.60;;
15876;SDS011;8037;51.666;7.834;2023-05-15T05:36:37;6.30;;;5.80;;
15876;SDS011;8037;51.666;7.834;2023-05-15T05:39:02;6.57;;;5.90;;
15876;SDS011;8037;51.666;7.834;2023-05-15T05:41:29;7.83;;;6.27;;
15876;SDS011;8037;51.666;7.834;2023-05-15T05:43:54;11.10;;;7.70;;
15876;SDS011;8037;51.666;7.834;2023-05-15T05:46:20;8.53;;;7.60;;
15876;SDS011;8037;51.666;7.834;2023-05-15T05:48:46;15.40;;;8.37;;
15876;SDS011;8037;51.666;7.834;2023-05-15T05:51:12;18.23;;;10.10;;
15876;SDS011;8037;51.666;7.834;2023-05-15T05:53:38;12.47;;;9.80;;
15876;SDS011;8037;51.666;7.834;2023-05-15T05:56:04;10.07;;;8.03;;
15876;SDS011;8037;51.666;7.834;2023-05-15T05:58:30;15.27;;;11.00;;
15876;SDS011;8037;51.666;7.834;2023-05-15T06:00:56;20.23;;;13.03;;
15876;SDS011;8037;51.666;7.834;2023-05-15T06:03:22;15.70;;;12.10;;
15876;SDS011;8037;51.666;7.834;2023-05-15T06:05:48;15.93;;;13.27;;
15876;SDS011;8037;51.666;7.834;2023-05-15T06:08:14;15.63;;;11.70;;
15876;SDS011;8037;51.666;7.834;2023-05-15T06:10:40;15.80;;;12.27;;
15876;SDS011;8037;51.666;7.834;2023-05-15T06:13:06;15.80;;;12.27;;
15876;SDS011;8037;51.666;7.834;2023-05-15T06:15:32;17.57;;;14.20;;
15876;SDS011;8037;51.666;7.834;2023-05-15T06:17:58;22.20;;;15.00;;
15876;SDS011;8037;51.666;7.834;2023-05-15T06:20:24;19.37;;;14.37;;
15876;SDS011;8037;51.666;7.834;2023-05-15T06:22:50;19.63;;;15.80;;
15876;SDS011;8037;51.666;7.834;2023-05-15T06:25:16;16.13;;;13.73;;
15876;SDS011;8037;51.666;7.834;2023-05-15T06:27:42;36.97;;;15.13;;
15876;SDS011;8037;51.666;7.834;2023-05-15T06:30:08;21.30;;;16.17;;
15876;SDS011;8037;51.666;7.834;2023-05-15T06:32:35;23.63;;;16.20;;
15876;SDS011;8037;51.666;7.834;2023-05-15T06:35:01;19.13;;;14.57;;
15876;SDS011;8037;51.666;7.834;2023-05-15T06:37:27;26.60;;;15.00;;
15876;SDS011;8037;51.666;7.834;2023-05-15T06:39:53;19.10;;;14.50;;
15876;SDS011;8037;51.666;7.834;2023-05-15T06:42:20;23.33;;;15.90;;
15876;SDS011;8037;51.666;7.834;2023-05-15T06:44:46;21.27;;;15.87;;
15876;SDS011;8037;51.666;7.834;2023-05-15T06:47:13;21.90;;;14.73;;
15876;SDS011;8037;51.666;7.834;2023-05-15T06:49:39;25.87;;;17.50;;
15876;SDS011;8037;51.666;7.834;2023-05-15T06:52:05;24.27;;;16.57;;
15876;SDS011;8037;51.666;7.834;2023-05-15T06:54:31;28.13;;;17.07;;
15876;SDS011;8037;51.666;7.834;2023-05-15T06:56:57;23.90;;;16.37;;
15876;SDS011;8037;51.666;7.834;2023-05-15T06:59:23;41.43;;;20.10;;
15876;SDS011;8037;51.666;7.834;2023-05-15T07:01:49;30.90;;;20.30;;
15876;SDS011;8037;51.666;7.834;2023-05-15T07:04:15;26.13;;;20.27;;
15876;SDS011;8037;51.666;7.834;2023-05-15T07:06:41;27.63;;;19.00;;
15876;SDS011;8037;51.666;7.834;2023-05-15T07:09:07;29.47;;;19.27;;
15876;SDS011;8037;51.666;7.834;2023-05-15T07:11:33;33.47;;;19.47;;
15876;SDS011;8037;51.666;7.834;2023-05-15T07:14:02;32.27;;;19.80;;
15876;SDS011;8037;51.666;7.834;2023-05-15T07:16:28;32.37;;;19.53;;
15876;SDS011;8037;51.666;7.834;2023-05-15T07:18:54;26.70;;;19.70;;
15876;SDS011;8037;51.666;7.834;2023-05-15T07:21:20;28.87;;;18.90;;
15876;SDS011;8037;51.666;7.834;2023-05-15T07:23:46;31.20;;;18.30;;
15876;SDS011;8037;51.666;7.834;2023-05-15T07:26:13;25.77;;;19.17;;
15876;SDS011;8037;51.666;7.834;2023-05-15T07:28:39;31.83;;;18.60;;
15876;SDS011;8037;51.666;7.834;2023-05-15T07:31:06;29.50;;;20.00;;
15876;SDS011;8037;51.666;7.834;2023-05-15T07:33:32;24.30;;;18.20;;
15876;SDS011;8037;51.666;7.834;2023-05-15T07:35:58;29.63;;;19.30;;
15876;SDS011;8037;51.666;7.834;2023-05-15T07:38:24;28.43;;;19.20;;
15876;SDS011;8037;51.666;7.834;2023-05-15T07:40:49;29.03;;;18.80;;
15876;SDS011;8037;51.666;7.834;2023-05-15T07:43:15;26.03;;;18.00;;
15876;SDS011;8037;51.666;7.834;2023-05-15T07:45:41;25.97;;;18.87;;
15876;SDS011;8037;51.666;7.834;2023-05-15T07:48:17;29.13;;;19.03;;
15876;SDS011;8037;51.666;7.834;2023-05-15T07:50:43;26.20;;;18.20;;
15876;SDS011;8037;51.666;7.834;2023-05-15T07:53:10;28.47;;;18.97;;
15876;SDS011;8037;51.666;7.834;2023-05-15T07:55:36;33.27;;;19.37;;
15876;SDS011;8037;51.666;7.834;2023-05-15T07:58:02;25.37;;;18.37;;
15876;SDS011;8037;51.666;7.834;2023-05-15T08:00:28;26.30;;;16.53;;
15876;SDS011;8037;51.666;7.834;2023-05-15T08:02:54;21.20;;;17.80;;
15876;SDS011;8037;51.666;7.834;2023-05-15T08:05:20;30.40;;;18.83;;
15876;SDS011;8037;51.666;7.834;2023-05-15T08:07:46;35.47;;;19.30;;
15876;SDS011;8037;51.666;7.834;2023-05-15T08:10:12;31.67;;;21.90;;
15876;SDS011;8037;51.666;7.834;2023-05-15T08:12:38;26.93;;;18.87;;
15876;SDS011;8037;51.666;7.834;2023-05-15T08:15:10;51.07;;;32.47;;
15876;SDS011;8037;51.666;7.834;2023-05-15T08:17:36;38.43;;;24.93;;
15876;SDS011;8037;51.666;7.834;2023-05-15T08:20:02;30.23;;;19.43;;
15876;SDS011;8037;51.666;7.834;2023-05-15T08:22:29;27.93;;;19.63;;
15876;SDS011;8037;51.666;7.834;2023-05-15T08:24:54;27.80;;;20.30;;
15876;SDS011;8037;51.666;7.834;2023-05-15T08:27:20;31.50;;;19.93;;
15876;SDS011;8037;51.666;7.834;2023-05-15T08:29:46;32.87;;;21.90;;
15876;SDS011;8037;51.666;7.834;2023-05-15T08:32:12;32.10;;;20.97;;
15876;SDS011;8037;51.666;7.834;2023-05-15T08:34:38;29.00;;;20.83;;
15876;SDS011;8037;51.666;7.834;2023-05-15T08:37:04;25.97;;;20.07;;
15876;SDS011;8037;51.666;7.834;2023-05-15T08:39:31;34.33;;;20.93;;
15876;SDS011;8037;51.666;7.834;2023-05-15T08:41:58;30.23;;;22.63;;
15876;SDS011;8037;51.666;7.834;2023-05-15T08:44:42;32.97;;;22.23;;
15876;SDS011;8037;51.666;7.834;2023-05-15T08:47:08;30.17;;;21.27;;
15876;SDS011;8037;51.666;7.834;2023-05-15T08:49:38;42.60;;;21.03;;
15876;SDS011;8037;51.666;7.834;2023-05-15T08:52:07;40.87;;;25.63;;
15876;SDS011;8037;51.666;7.834;2023-05-15T08:54:33;30.57;;;20.90;;
15876;SDS011;8037;51.666;7.834;2023-05-15T08:56:59;27.30;;;19.60;;
15876;SDS011;8037;51.666;7.834;2023-05-15T08:59:26;30.10;;;20.90;;
15876;SDS011;8037;51.666;7.834;2023-05-15T09:01:52;36.57;;;21.87;;
15876;SDS011;8037;51.666;7.834;2023-05-15T09:04:18;32.90;;;21.50;;
15876;SDS011;8037;51.666;7.834;2023-05-15T09:06:44;35.37;;;19.30;;
15876;SDS011;8037;51.666;7.834;2023-05-15T09:09:11;40.40;;;21.70;;
15876;SDS011;8037;51.666;7.834;2023-05-15T09:11:42;38.13;;;21.00;;
15876;SDS011;8037;51.666;7.834;2023-05-15T09:14:09;33.67;;;20.10;;
15876;SDS011;8037;51.666;7.834;2023-05-15T09:16:36;31.90;;;20.33;;
15876;SDS011;8037;51.666;7.834;2023-05-15T09:19:02;26.90;;;18.97;;
15876;SDS011;8037;51.666;7.834;2023-05-15T09:21:29;29.10;;;21.23;;
15876;SDS011;8037;51.666;7.834;2023-05-15T09:24:15;28.00;;;19.53;;
15876;SDS011;8037;51.666;7.834;2023-05-15T09:26:44;25.43;;;19.70;;
15876;SDS011;8037;51.666;7.834;2023-05-15T09:29:13;32.13;;;20.53;;
15876;SDS011;8037;51.666;7.834;2023-05-15T09:31:40;25.20;;;18.53;;
15876;SDS011;8037;51.666;7.834;2023-05-15T09:34:06;20.40;;;16.90;;
15876;SDS011;8037;51.666;7.834;2023-05-15T09:36:33;27.80;;;18.47;;
15876;SDS011;8037;51.666;7.834;2023-05-15T09:39:00;28.80;;;19.30;;
15876;SDS011;8037;51.666;7.834;2023-05-15T09:41:26;23.33;;;18.10;;
15876;SDS011;8037;51.666;7.834;2023-05-15T09:43:53;31.37;;;18.87;;
15876;SDS011;8037;51.666;7.834;2023-05-15T09:46:20;27.70;;;18.10;;
15876;SDS011;8037;51.666;7.834;2023-05-15T09:48:47;25.47;;;18.33;;
15876;SDS011;8037;51.666;7.834;2023-05-15T09:51:17;26.07;;;19.30;;
15876;SDS011;8037;51.666;7.834;2023-05-15T09:53:52;28.93;;;19.70;;
15876;SDS011;8037;51.666;7.834;2023-05-15T09:56:18;27.43;;;19.70;;
15876;SDS011;8037;51.666;7.834;2023-05-15T09:58:51;22.43;;;17.73;;
15876;SDS011;8037;51.666;7.834;2023-05-15T10:01:18;26.87;;;16.93;;
15876;SDS011;8037;51.666;7.834;2023-05-15T10:03:55;23.73;;;17.67;;
15876;SDS011;8037;51.666;7.834;2023-05-15T10:06:22;30.97;;;19.40;;
15876;SDS011;8037;51.666;7.834;2023-05-15T10:08:54;23.60;;;19.33;;
15876;SDS011;8037;51.666;7.834;2023-05-15T10:11:20;32.30;;;18.43;;
15876;SDS011;8037;51.666;7.834;2023-05-15T10:13:47;25.87;;;18.30;;
15876;SDS011;8037;51.666;7.834;2023-05-15T10:16:13;24.57;;;18.00;;
15876;SDS011;8037;51.666;7.834;2023-05-15T10:18:40;28.73;;;18.23;;
15876;SDS011;8037;51.666;7.834;2023-05-15T10:21:07;27.43;;;18.50;;
15876;SDS011;8037;51.666;7.834;2023-05-15T10:23:36;35.37;;;19.37;;
15876;SDS011;8037;51.666;7.834;2023-05-15T10:26:07;28.37;;;19.17;;
15876;SDS011;8037;51.666;7.834;2023-05-15T10:28:35;22.73;;;15.03;;
15876;SDS011;8037;51.666;7.834;2023-05-15T10:31:02;25.00;;;17.27;;
15876;SDS011;8037;51.666;7.834;2023-05-15T10:33:29;22.53;;;16.87;;
15876;SDS011;8037;51.666;7.834;2023-05-15T10:35:55;27.43;;;16.77;;
15876;SDS011;8037;51.666;7.834;2023-05-15T10:38:23;29.77;;;18.03;;
15876;SDS011;8037;51.666;7.834;2023-05-15T10:40:51;24.73;;;17.80;;
15876;SDS011;8037;51.666;7.834;2023-05-15T10:43:17;27.20;;;17.80;;
15876;SDS011;8037;51.666;7.834;2023-05-15T10:45:45;19.60;;;15.27;;
15876;SDS011;8037;51.666;7.834;2023-05-15T10:48:11;23.13;;;16.17;;
15876;SDS011;8037;51.666;7.834;2023-05-15T10:50:38;19.90;;;16.47;;
15876;SDS011;8037;51.666;7.834;2023-05-15T10:53:04;25.90;;;17.90;;
15876;SDS011;8037;51.666;7.834;2023-05-15T10:55:30;22.77;;;16.00;;
15876;SDS011;8037;51.666;7.834;2023-05-15T10:57:56;23.70;;;15.50;;
15876;SDS011;8037;51.666;7.834;2023-05-15T11:00:23;26.83;;;16.27;;
15876;SDS011;8037;51.666;7.834;2023-05-15T11:02:50;19.57;;;14.23;;
15876;SDS011;8037;51.666;7.834;2023-05-15T11:05:20;33.43;;;15.87;;
15876;SDS011;8037;51.666;7.834;2023-05-15T11:12:57;18.10;;;14.23;;
15876;SDS011;8037;51.666;7.834;2023-05-15T11:15:27;20.23;;;13.47;;
15876;SDS011;8037;51.666;7.834;2023-05-15T11:18:09;18.90;;;12.87;;
15876;SDS011;8037;51.666;7.834;2023-05-15T11:20:41;17.70;;;13.20;;
15876;SDS011;8037;51.666;7.834;2023-05-15T11:23:08;16.43;;;13.23;;
15876;SDS011;8037;51.666;7.834;2023-05-15T11:25:34;20.80;;;14.30;;
15876;SDS011;8037;51.666;7.834;2023-05-15T11:28:01;19.90;;;14.47;;
15876;SDS011;8037;51.666;7.834;2023-05-15T11:30:33;24.23;;;14.27;;
15876;SDS011;8037;51.666;7.834;2023-05-15T11:33:00;18.03;;;14.20;;
15876;SDS011;8037;51.666;7.834;2023-05-15T11:37:54;14.77;;;11.53;;
15876;SDS011;8037;51.666;7.834;2023-05-15T11:42:58;17.57;;;13.10;;
15876;SDS011;8037;51.666;7.834;2023-05-15T11:45:32;14.63;;;12.27;;
15876;SDS011;8037;51.666;7.834;2023-05-15T11:48:00;20.43;;;11.17;;
15876;SDS011;8037;51.666;7.834;2023-05-15T11:50:27;13.97;;;11.43;;
15876;SDS011;8037;51.666;7.834;2023-05-15T11:52:54;14.23;;;11.20;;
15876;SDS011;8037;51.666;7.834;2023-05-15T11:55:21;17.37;;;13.70;;
15876;SDS011;8037;51.666;7.834;2023-05-15T11:57:47;12.63;;;11.30;;
15876;SDS011;8037;51.666;7.834;2023-05-15T12:00:13;15.20;;;10.27;;
15876;SDS011;8037;51.666;7.834;2023-05-15T12:02:39;16.67;;;13.10;;
15876;SDS011;8037;51.666;7.834;2023-05-15T12:05:06;17.73;;;12.37;;
15876;SDS011;8037;51.666;7.834;2023-05-15T12:07:40;16.57;;;13.07;;
15876;SDS011;8037;51.666;7.834;2023-05-15T12:10:08;18.40;;;14.67;;
15876;SDS011;8037;51.666;7.834;2023-05-15T12:12:35;20.00;;;14.00;;
15876;SDS011;8037;51.666;7.834;2023-05-15T12:15:01;18.87;;;13.63;;
15876;SDS011;8037;51.666;7.834;2023-05-15T12:17:29;21.70;;;15.50;;
15876;SDS011;8037;51.666;7.834;2023-05-15T12:19:56;20.43;;;14.90;;
15876;SDS011;8037;51.666;7.834;2023-05-15T12:22:22;22.33;;;14.37;;
15876;SDS011;8037;51.666;7.834;2023-05-15T12:24:48;22.23;;;13.47;;
15876;SDS011;8037;51.666;7.834;2023-05-15T12:27:14;15.70;;;13.70;;
15876;SDS011;8037;51.666;7.834;2023-05-15T12:29:40;20.03;;;13.47;;
15876;SDS011;8037;51.666;7.834;2023-05-15T12:32:06;15.90;;;12.07;;
15876;SDS011;8037;51.666;7.834;2023-05-15T12:34:32;19.30;;;12.87;;
15876;SDS011;8037;51.666;7.834;2023-05-15T12:36:58;29.30;;;17.60;;
15876;SDS011;8037;51.666;7.834;2023-05-15T12:39:25;22.73;;;13.83;;
15876;SDS011;8037;51.666;7.834;2023-05-15T12:41:51;31.70;;;17.70;;
15876;SDS011;8037;51.666;7.834;2023-05-15T12:44:20;22.10;;;12.47;;
15876;SDS011;8037;51.666;7.834;2023-05-15T12:46:46;16.30;;;12.40;;
15876;SDS011;8037;51.666;7.834;2023-05-15T12:49:12;14.97;;;11.03;;
15876;SDS011;8037;51.666;7.834;2023-05-15T12:51:41;11.93;;;10.63;;
15876;SDS011;8037;51.666;7.834;2023-05-15T12:54:15;12.10;;;10.20;;
15876;SDS011;8037;51.666;7.834;2023-05-15T12:56:41;10.13;;;9.20;;
15876;SDS011;8037;51.666;7.834;2023-05-15T12:59:07;12.00;;;10.50;;
15876;SDS011;8037;51.666;7.834;2023-05-15T13:01:33;10.00;;;9.00;;
15876;SDS011;8037;51.666;7.834;2023-05-15T13:03:59;8.03;;;7.00;;
15876;SDS011;8037;51.666;7.834;2023-05-15T13:06:25;10.33;;;8.47;;
15876;SDS011;8037;51.666;7.834;2023-05-15T13:08:52;9.23;;;7.90;;
15876;SDS011;8037;51.666;7.834;2023-05-15T13:11:18;9.23;;;7.03;;
15876;SDS011;8037;51.666;7.834;2023-05-15T13:16:17;8.00;;;6.23;;
15876;SDS011;8037;51.666;7.834;2023-05-15T13:18:43;8.10;;;7.23;;
15876;SDS011;8037;51.666;7.834;2023-05-15T13:21:09;6.07;;;5.10;;
15876;SDS011;8037;51.666;7.834;2023-05-15T13:23:35;10.43;;;6.30;;
15876;SDS011;8037;51.666;7.834;2023-05-15T13:26:01;6.63;;;6.03;;
15876;SDS011;8037;51.666;7.834;2023-05-15T13:28:27;7.87;;;7.17;;
15876;SDS011;8037;51.666;7.834;2023-05-15T13:30:53;6.17;;;5.57;;
15876;SDS011;8037;51.666;7.834;2023-05-15T13:33:19;9.30;;;5.67;;
15876;SDS011;8037;51.666;7.834;2023-05-15T13:35:45;6.83;;;6.27;;
15876;SDS011;8037;51.666;7.834;2023-05-15T13:38:10;6.57;;;5.50;;
15876;SDS011;8037;51.666;7.834;2023-05-15T13:40:37;10.87;;;4.70;;
15876;SDS011;8037;51.666;7.834;2023-05-15T13:43:03;10.30;;;5.50;;
15876;SDS011;8037;51.666;7.834;2023-05-15T13:45:30;5.60;;;4.20;;
15876;SDS011;8037;51.666;7.834;2023-05-15T13:47:56;4.13;;;3.83;;
15876;SDS011;8037;51.666;7.834;2023-05-15T13:50:22;4.43;;;4.03;;
15876;SDS011;8037;51.666;7.834;2023-05-15T13:52:48;5.73;;;5.13;;
15876;SDS011;8037;51.666;7.834;2023-05-15T13:55:14;4.87;;;4.40;;
15876;SDS011;8037;51.666;7.834;2023-05-15T13:57:41;6.70;;;5.07;;
15876;SDS011;8037;51.666;7.834;2023-05-15T14:00:08;8.43;;;5.00;;
15876;SDS011;8037;51.666;7.834;2023-05-15T14:02:36;7.20;;;3.80;;
15876;SDS011;8037;51.666;7.834;2023-05-15T14:05:02;8.40;;;4.20;;
15876;SDS011;8037;51.666;7.834;2023-05-15T14:07:29;5.43;;;3.67;;
15876;SDS011;8037;51.666;7.834;2023-05-15T14:09:56;4.13;;;3.83;;
15876;SDS011;8037;51.666;7.834;2023-05-15T14:12:22;4.70;;;4.30;;
15876;SDS011;8037;51.666;7.834;2023-05-15T14:14:48;4.47;;;4.17;;
15876;SDS011;8037;51.666;7.834;2023-05-15T14:17:14;8.97;;;4.60;;
15876;SDS011;8037;51.666;7.834;2023-05-15T14:19:40;4.47;;;4.17;;
15876;SDS011;8037;51.666;7.834;2023-05-15T14:22:07;6.33;;;3.60;;
15876;SDS011;8037;51.666;7.834;2023-05-15T14:24:33;4.57;;;4.20;;
15876;SDS011;8037;51.666;7.834;2023-05-15T14:26:59;9.50;;;4.07;;
15876;SDS011;8037;51.666;7.834;2023-05-15T14:29:25;7.63;;;3.60;;
15876;SDS011;8037;51.666;7.834;2023-05-15T14:31:51;7.73;;;3.60;;
15876;SDS011;8037;51.666;7.834;2023-05-15T14:34:17;3.70;;;3.23;;
15876;SDS011;8037;51.666;7.834;2023-05-15T14:36:43;4.20;;;3.80;;
15876;SDS011;8037;51.666;7.834;2023-05-15T14:39:13;4.30;;;3.90;;
15876;SDS011;8037;51.666;7.834;2023-05-15T14:41:39;3.70;;;3.40;;
15876;SDS011;8037;51.666;7.834;2023-05-15T14:44:05;3.90;;;3.50;;
15876;SDS011;8037;51.666;7.834;2023-05-15T14:46:31;3.00;;;2.80;;
15876;SDS011;8037;51.666;7.834;2023-05-15T14:48:57;4.53;;;4.13;;
15876;SDS011;8037;51.666;7.834;2023-05-15T14:51:23;4.30;;;4.00;;
15876;SDS011;8037;51.666;7.834;2023-05-15T14:53:49;7.93;;;3.93;;
15876;SDS011;8037;51.666;7.834;2023-05-15T14:56:15;4.07;;;3.77;;
15876;SDS011;8037;51.666;7.834;2023-05-15T14:58:41;3.60;;;3.40;;
15876;SDS011;8037;51.666;7.834;2023-05-15T15:01:07;4.60;;;3.50;;
15876;SDS011;8037;51.666;7.834;2023-05-15T15:03:33;3.77;;;3.47;;
15876;SDS011;8037;51.666;7.834;2023-05-15T15:05:59;5.37;;;3.47;;
15876;SDS011;8037;51.666;7.834;2023-05-15T15:08:25;4.10;;;3.80;;